createdAt,value
2019-06-08T00:00:36.302Z,14.28
2019-06-08T00:03:09.732Z,14.17
2019-06-08T00:05:43.116Z,14.19
2019-06-08T00:08:16.862Z,14.16
2019-06-08T00:10:50.420Z,14.00
2019-06-08T00:13:23.824Z,14.07
2019-06-08T00:15:57.245Z,14.05
2019-06-08T00:18:30.670Z,14.05
2019-06-08T00:21:04.084Z,14.03
2019-06-08T00:23:37.519Z,13.94
2019-06-08T00:26:10.901Z,13.91
2019-06-08T00:28:44.324Z,13.96
2019-06-08T00:31:17.813Z,13.90
2019-06-08T00:33:51.207Z,13.77
2019-06-08T00:36:25.079Z,13.83
2019-06-08T00:38:58.660Z,13.92
2019-06-08T00:41:32.062Z,13.91
2019-06-08T00:44:05.912Z,13.97
2019-06-08T00:46:39.307Z,13.95
2019-06-08T00:49:12.733Z,13.89
2019-06-08T00:51:46.142Z,13.86
2019-06-08T00:54:19.551Z,13.87
2019-06-08T00:56:53.015Z,13.86
2019-06-08T00:59:26.449Z,13.82
2019-06-08T01:01:59.865Z,13.85
2019-06-08T01:04:33.296Z,13.90
2019-06-08T01:07:06.748Z,13.78
2019-06-08T01:09:40.164Z,13.76
2019-06-08T01:12:13.577Z,13.81
2019-06-08T01:14:47.066Z,13.84
2019-06-08T01:17:21.059Z,13.91
2019-06-08T01:19:54.557Z,13.91
2019-06-08T01:22:27.962Z,13.88
2019-06-08T01:25:01.401Z,13.91
2019-06-08T01:27:34.814Z,13.90
2019-06-08T01:30:09.453Z,13.93
2019-06-08T01:32:42.837Z,13.99
2019-06-08T01:35:16.355Z,14.09
2019-06-08T01:37:49.740Z,14.16
2019-06-08T01:40:23.322Z,14.12
2019-06-08T01:42:56.716Z,14.10
2019-06-08T01:45:30.251Z,14.16
2019-06-08T01:48:19.652Z,14.13
2019-06-08T01:50:40.793Z,14.11
2019-06-08T01:53:14.201Z,14.07
2019-06-08T01:55:47.596Z,14.06
2019-06-08T01:58:20.988Z,14.04
2019-06-08T02:00:54.493Z,14.07
2019-06-08T02:03:28.180Z,14.11
2019-06-08T02:06:01.706Z,14.18
2019-06-08T02:08:35.167Z,14.24
2019-06-08T02:11:08.573Z,14.19
2019-06-08T02:13:41.996Z,14.20
2019-06-08T02:16:15.408Z,14.25
2019-06-08T02:18:51.093Z,14.26
2019-06-08T02:21:23.949Z,14.29
2019-06-08T02:23:57.334Z,14.32
2019-06-08T02:26:32.052Z,14.34
2019-06-08T02:29:06.245Z,14.40
2019-06-08T02:31:39.671Z,14.43
2019-06-08T02:34:13.070Z,14.42
2019-06-08T02:36:46.501Z,14.38
2019-06-08T02:39:19.906Z,14.42
2019-06-08T02:41:53.406Z,14.38
2019-06-08T02:44:28.290Z,14.40
2019-06-08T02:47:02.038Z,14.44
2019-06-08T02:49:35.928Z,14.51
2019-06-08T02:52:11.423Z,14.49
2019-06-08T02:54:44.892Z,14.59
2019-06-08T02:57:19.810Z,14.60
2019-06-08T02:59:55.629Z,14.56
2019-06-08T03:02:29.655Z,14.59
2019-06-08T03:05:03.787Z,14.59
2019-06-08T03:07:39.014Z,14.68
2019-06-08T03:10:12.846Z,14.75
2019-06-08T03:12:48.134Z,14.85
2019-06-08T03:15:24.577Z,14.87
2019-06-08T03:17:57.984Z,14.75
2019-06-08T03:20:31.665Z,14.78
2019-06-08T03:23:05.258Z,14.73
2019-06-08T03:25:47.254Z,14.71
2019-06-08T03:28:13.890Z,14.74
2019-06-08T03:30:53.845Z,14.71
2019-06-08T03:33:22.528Z,14.68
2019-06-08T03:35:58.140Z,14.71
2019-06-08T03:38:31.072Z,14.70
2019-06-08T03:41:04.570Z,14.71
2019-06-08T03:43:40.076Z,14.69
2019-06-08T03:46:13.096Z,14.63
2019-06-08T03:48:46.699Z,14.58
2019-06-08T03:51:20.073Z,14.52
2019-06-08T03:53:53.491Z,14.49
2019-06-08T03:56:26.893Z,14.51
2019-06-08T03:59:00.300Z,14.49
2019-06-08T04:01:33.687Z,14.52
2019-06-08T04:04:07.093Z,14.48
2019-06-08T04:06:41.486Z,14.47
2019-06-08T04:09:14.978Z,14.47
2019-06-08T04:11:50.197Z,14.43
2019-06-08T04:14:23.683Z,14.40
2019-06-08T04:16:57.073Z,14.39
2019-06-08T04:19:30.509Z,14.40
2019-06-08T04:22:03.969Z,14.39
2019-06-08T04:24:38.044Z,14.44
2019-06-08T04:27:11.480Z,14.55
2019-06-08T04:29:46.133Z,14.66
2019-06-08T04:32:19.907Z,14.57
2019-06-08T04:34:53.369Z,14.55
2019-06-08T04:37:26.787Z,14.55
2019-06-08T04:40:00.209Z,14.60
2019-06-08T04:45:08.264Z,14.76
2019-06-08T04:47:43.570Z,14.76
2019-06-08T04:50:23.135Z,14.66
2019-06-08T04:52:51.974Z,15.01
2019-06-08T04:55:25.402Z,14.97
2019-06-08T04:57:58.779Z,15.37
2019-06-08T05:00:32.214Z,15.52
2019-06-08T05:03:05.625Z,16.81
2019-06-08T05:05:39.381Z,16.28
2019-06-08T05:08:14.109Z,16.24
2019-06-08T05:10:47.615Z,16.24
2019-06-08T05:13:21.488Z,16.88
2019-06-08T05:15:54.924Z,16.88
2019-06-08T05:18:28.324Z,17.99
2019-06-08T05:21:01.759Z,17.99
2019-06-08T05:23:35.248Z,17.28
2019-06-08T05:26:08.694Z,15.70
2019-06-08T05:28:43.172Z,15.22
2019-06-08T05:31:16.634Z,15.15
2019-06-08T05:33:50.089Z,15.20
2019-06-08T05:36:23.577Z,15.20
2019-06-08T05:38:56.964Z,15.23
2019-06-08T05:41:30.407Z,15.10
2019-06-08T05:44:03.864Z,15.15
2019-06-08T05:46:37.303Z,15.14
2019-06-08T05:49:10.717Z,15.50
2019-06-08T05:51:44.120Z,16.42
2019-06-08T05:54:17.524Z,16.58
2019-06-08T05:56:50.946Z,15.76
2019-06-08T05:59:24.409Z,15.25
2019-06-08T06:01:57.881Z,16.60
2019-06-08T06:04:31.269Z,17.18
2019-06-08T06:07:04.869Z,16.41
2019-06-08T06:09:38.326Z,17.78
2019-06-08T06:12:11.743Z,17.65
2019-06-08T06:14:45.130Z,16.96
2019-06-08T06:17:18.567Z,17.50
2019-06-08T06:19:52.004Z,17.95
2019-06-08T06:22:25.459Z,16.13
2019-06-08T06:24:58.887Z,16.47
2019-06-08T06:27:32.279Z,15.58
2019-06-08T06:30:07.697Z,16.58
2019-06-08T06:32:41.789Z,17.11
2019-06-08T06:35:16.816Z,15.73
2019-06-08T06:37:50.297Z,16.38
2019-06-08T06:40:23.741Z,16.64
2019-06-08T06:42:57.169Z,15.58
2019-06-08T06:45:30.661Z,16.58
2019-06-08T06:48:04.159Z,16.70
2019-06-08T06:50:37.665Z,16.62
2019-06-08T06:53:11.102Z,16.48
2019-06-08T06:55:44.835Z,17.42
2019-06-08T06:58:18.284Z,15.97
2019-06-08T07:00:51.764Z,16.02
2019-06-08T07:03:25.184Z,15.68
2019-06-08T07:05:58.617Z,15.46
2019-06-08T07:08:32.048Z,15.90
2019-06-08T07:11:05.612Z,16.51
2019-06-08T07:13:39.042Z,16.79
2019-06-08T07:16:18.469Z,17.09
2019-06-08T07:18:48.184Z,16.65
2019-06-08T07:21:21.852Z,16.99
2019-06-08T07:23:56.191Z,16.73
2019-06-08T07:26:29.853Z,16.23
2019-06-08T07:29:03.360Z,16.72
2019-06-08T07:31:36.754Z,16.19
2019-06-08T07:34:10.166Z,16.16
2019-06-08T07:36:43.591Z,17.26
2019-06-08T07:39:16.972Z,16.03
2019-06-08T07:41:51.711Z,16.15
2019-06-08T07:44:25.281Z,16.93
2019-06-08T07:47:00.150Z,17.52
2019-06-08T07:49:33.580Z,18.02
2019-06-08T07:52:10.644Z,17.65
2019-06-08T07:54:42.132Z,18.83
2019-06-08T07:57:15.545Z,18.67
2019-06-08T07:59:50.238Z,18.48
2019-06-08T08:02:23.823Z,18.85
2019-06-08T08:04:57.208Z,19.09
2019-06-08T08:07:32.226Z,17.30
2019-06-08T08:10:08.299Z,18.44
2019-06-08T08:12:41.772Z,16.75
2019-06-08T08:15:15.726Z,16.63
2019-06-08T08:17:49.177Z,16.68
2019-06-08T08:20:22.736Z,16.73
2019-06-08T08:23:01.991Z,17.00
2019-06-08T08:25:31.279Z,17.98
2019-06-08T08:28:04.876Z,17.10
2019-06-08T08:30:38.337Z,17.15
2019-06-08T08:33:11.856Z,16.89
2019-06-08T08:35:45.344Z,16.94
2019-06-08T08:38:18.849Z,16.58
2019-06-08T08:40:53.438Z,16.67
2019-06-08T08:43:28.039Z,18.21
2019-06-08T08:46:01.967Z,17.76
2019-06-08T08:48:37.582Z,17.99
2019-06-08T08:51:10.684Z,17.73
2019-06-08T08:53:44.091Z,17.38
2019-06-08T08:56:18.154Z,17.64
2019-06-08T08:58:52.482Z,17.60
2019-06-08T09:01:28.551Z,17.20
2019-06-08T09:04:04.809Z,17.26
2019-06-08T09:06:38.127Z,17.40
2019-06-08T09:09:11.389Z,17.59
2019-06-08T09:11:44.814Z,17.82
2019-06-08T09:14:18.578Z,18.18
2019-06-08T09:16:53.628Z,17.28
2019-06-08T09:19:28.113Z,17.41
2019-06-08T09:22:03.867Z,17.67
2019-06-08T09:24:39.053Z,17.27
2019-06-08T09:27:11.966Z,17.48
2019-06-08T09:29:48.167Z,17.76
2019-06-08T09:32:21.656Z,17.85
2019-06-08T09:34:57.175Z,17.59
2019-06-08T09:37:32.240Z,17.62
2019-06-08T09:40:06.592Z,17.96
2019-06-08T09:42:39.980Z,18.37
2019-06-08T09:45:14.048Z,18.56
2019-06-08T09:47:47.931Z,18.50
2019-06-08T09:50:22.073Z,18.06
2019-06-08T09:53:13.026Z,18.23
2019-06-08T09:55:30.659Z,18.35
2019-06-08T09:58:08.152Z,18.84
2019-06-08T10:00:39.349Z,18.04
2019-06-08T10:03:12.737Z,17.85
2019-06-08T10:05:48.234Z,17.97
2019-06-08T10:08:21.386Z,18.10
2019-06-08T10:10:56.642Z,17.69
2019-06-08T10:13:30.555Z,17.70
2019-06-08T10:16:06.893Z,17.65
2019-06-08T10:18:39.475Z,18.19
2019-06-08T10:21:12.855Z,17.89
2019-06-08T10:23:48.374Z,18.09
2019-06-08T10:26:21.467Z,17.93
2019-06-08T10:28:55.329Z,18.26
2019-06-08T10:31:38.882Z,18.41
2019-06-08T10:34:06.141Z,18.67
2019-06-08T10:36:39.076Z,18.95
2019-06-08T10:39:12.563Z,19.16
2019-06-08T10:41:51.341Z,19.20
2019-06-08T10:44:21.101Z,19.63
2019-06-08T10:46:54.629Z,19.54
2019-06-08T10:49:28.772Z,18.86
2019-06-08T10:52:04.401Z,20.07
2019-06-08T10:54:37.910Z,19.63
2019-06-08T10:57:11.501Z,19.41
2019-06-08T10:59:44.976Z,20.01
2019-06-08T11:02:18.892Z,20.84
2019-06-08T11:04:52.476Z,19.86
2019-06-08T11:07:27.960Z,19.47
2019-06-08T11:10:02.131Z,19.74
2019-06-08T11:12:37.700Z,19.52
2019-06-08T11:15:11.936Z,19.26
2019-06-08T11:17:45.408Z,19.11
2019-06-08T11:20:18.929Z,18.90
2019-06-08T11:22:52.338Z,19.41
2019-06-08T11:25:27.869Z,18.79
2019-06-08T11:28:01.805Z,19.03
2019-06-08T11:30:35.294Z,18.58
2019-06-08T11:33:11.228Z,19.38
2019-06-08T11:35:43.881Z,20.27
2019-06-08T11:38:17.556Z,20.26
2019-06-08T11:40:52.457Z,20.57
2019-06-08T11:43:28.559Z,19.53
2019-06-08T11:46:02.483Z,19.77
2019-06-08T11:48:40.863Z,20.20
2019-06-08T11:51:13.012Z,20.33
2019-06-08T11:53:49.939Z,20.35
2019-06-08T11:56:22.240Z,20.07
2019-06-08T11:58:57.942Z,20.11
2019-06-08T12:01:31.530Z,20.15
2019-06-08T12:04:05.828Z,20.44
2019-06-08T12:06:39.288Z,21.08
2019-06-08T12:09:14.075Z,19.35
2019-06-08T12:11:48.098Z,19.46
2019-06-08T12:14:21.583Z,19.39
2019-06-08T12:16:54.993Z,19.58
2019-06-08T12:19:31.506Z,20.01
2019-06-08T12:22:03.909Z,19.48
2019-06-08T12:24:42.045Z,19.97
2019-06-08T12:27:24.793Z,20.50
2019-06-08T12:29:50.074Z,20.74
2019-06-08T12:32:22.714Z,20.70
2019-06-08T12:34:59.789Z,20.78
2019-06-08T12:37:31.326Z,21.00
2019-06-08T12:40:09.361Z,20.43
2019-06-08T12:42:41.354Z,20.43
2019-06-08T12:45:15.522Z,20.41
2019-06-08T12:47:48.963Z,19.83
2019-06-08T12:50:22.533Z,19.81
2019-06-08T12:52:58.277Z,19.42
2019-06-08T12:55:31.025Z,19.87
2019-06-08T12:58:04.873Z,20.82
2019-06-08T13:00:38.293Z,20.90
2019-06-08T13:03:12.898Z,20.92
2019-06-08T13:05:46.371Z,21.77
2019-06-08T13:08:21.754Z,20.98
2019-06-08T13:10:55.040Z,19.87
2019-06-08T13:13:28.470Z,20.26
2019-06-08T13:16:01.876Z,20.80
2019-06-08T13:18:35.270Z,20.95
2019-06-08T13:21:23.027Z,21.32
2019-06-08T13:23:43.816Z,21.75
2019-06-08T13:26:21.544Z,20.92
2019-06-08T13:28:52.409Z,21.44
2019-06-08T13:31:28.495Z,21.31
2019-06-08T13:34:00.954Z,21.26
2019-06-08T13:36:34.376Z,21.80
2019-06-08T13:39:10.078Z,21.95
2019-06-08T13:41:43.062Z,22.29
2019-06-08T13:44:17.729Z,22.53
2019-06-08T13:46:51.255Z,22.15
2019-06-08T13:49:29.732Z,22.22
2019-06-08T13:51:59.836Z,21.15
2019-06-08T13:54:33.225Z,21.05
2019-06-08T13:57:08.550Z,21.52
2019-06-08T13:59:41.842Z,20.81
2019-06-08T14:02:17.836Z,20.79
2019-06-08T14:04:50.425Z,20.71
2019-06-08T14:07:28.678Z,20.97
2019-06-08T14:10:01.664Z,21.72
2019-06-08T14:12:35.064Z,21.55
2019-06-08T14:15:08.766Z,20.88
2019-06-08T14:17:42.162Z,20.59
2019-06-08T14:20:19.877Z,21.11
2019-06-08T14:22:53.814Z,21.46
2019-06-08T14:25:28.924Z,21.00
2019-06-08T14:28:02.504Z,20.82
2019-06-08T14:30:37.800Z,21.01
2019-06-08T14:33:11.028Z,20.72
2019-06-08T14:35:44.467Z,20.62
2019-06-08T14:38:20.283Z,20.81
2019-06-08T14:40:53.081Z,20.42
2019-06-08T14:43:29.460Z,20.64
2019-06-08T14:46:19.515Z,20.45
2019-06-08T14:48:53.239Z,21.06
2019-06-08T14:51:30.151Z,21.47
2019-06-08T14:54:03.721Z,21.80
2019-06-08T14:56:37.559Z,21.95
2019-06-08T14:59:11.140Z,22.39
2019-06-08T15:01:44.655Z,22.95
2019-06-08T15:04:22.343Z,22.10
2019-06-08T15:06:53.267Z,22.00
2019-06-08T15:09:27.648Z,22.15
2019-06-08T15:12:01.931Z,22.14
2019-06-08T15:14:38.130Z,21.52
2019-06-08T15:17:10.477Z,21.91
2019-06-08T15:19:43.960Z,21.70
2019-06-08T15:22:18.789Z,21.55
2019-06-08T15:24:52.731Z,22.01
2019-06-08T15:27:28.036Z,22.49
2019-06-08T15:30:01.297Z,21.40
2019-06-08T15:32:35.685Z,20.90
2019-06-08T15:35:10.159Z,23.03
2019-06-08T15:37:43.601Z,22.77
2019-06-08T15:40:17.678Z,23.81
2019-06-08T15:42:51.384Z,23.62
2019-06-08T15:45:24.806Z,24.64
2019-06-08T15:47:58.796Z,24.93
2019-06-08T15:50:32.719Z,24.78
2019-06-08T15:53:08.363Z,24.90
2019-06-08T15:55:41.315Z,23.83
2019-06-08T15:58:17.823Z,24.31
2019-06-08T16:00:50.418Z,24.70
2019-06-08T16:03:25.218Z,23.68
2019-06-08T16:05:58.698Z,24.94
2019-06-08T16:08:32.392Z,24.46
2019-06-08T16:11:05.837Z,24.47
2019-06-08T16:13:39.254Z,24.86
2019-06-08T16:16:12.673Z,24.65
2019-06-08T16:18:46.121Z,25.52
2019-06-08T16:21:19.553Z,22.73
2019-06-08T16:23:52.978Z,22.65
2019-06-08T16:26:27.738Z,24.25
2019-06-08T16:29:01.457Z,24.41
2019-06-08T16:31:35.402Z,24.55
2019-06-08T16:34:08.859Z,25.08
2019-06-08T16:36:42.264Z,24.41
2019-06-08T16:39:15.697Z,24.52
2019-06-08T16:41:49.122Z,24.28
2019-06-08T16:44:22.567Z,23.97
2019-06-08T16:46:55.955Z,24.42
2019-06-08T16:49:29.422Z,24.49
2019-06-08T16:52:02.924Z,24.28
2019-06-08T16:54:37.269Z,24.79
2019-06-08T16:57:11.300Z,24.76
2019-06-08T16:59:44.906Z,24.81
2019-06-08T17:02:18.309Z,24.54
2019-06-08T17:04:51.758Z,24.40
2019-06-08T17:07:25.146Z,24.50
2019-06-08T17:09:58.572Z,23.76
2019-06-08T17:12:32.828Z,24.34
2019-06-08T17:15:06.781Z,24.55
2019-06-08T17:17:40.589Z,24.46
2019-06-08T17:20:14.395Z,23.72
2019-06-08T17:22:47.807Z,23.47
2019-06-08T17:25:21.305Z,23.38
2019-06-08T17:27:54.735Z,23.35
2019-06-08T17:30:28.158Z,24.29
2019-06-08T17:33:01.591Z,24.45
2019-06-08T17:35:35.607Z,23.48
2019-06-08T17:38:09.336Z,23.28
2019-06-08T17:40:42.767Z,23.40
2019-06-08T17:43:16.196Z,23.24
2019-06-08T17:45:49.626Z,23.02
2019-06-08T17:48:23.099Z,22.95
2019-06-08T17:50:56.534Z,22.12
2019-06-08T17:53:29.926Z,23.06
2019-06-08T17:56:03.373Z,23.24
2019-06-08T17:58:37.274Z,21.97
2019-06-08T18:01:10.772Z,22.52
2019-06-08T18:03:44.696Z,23.05
2019-06-08T18:06:18.192Z,22.70
2019-06-08T18:08:51.630Z,21.18
2019-06-08T18:11:25.033Z,20.46
2019-06-08T18:13:58.933Z,20.21
2019-06-08T18:16:32.347Z,20.17
2019-06-08T18:19:07.945Z,20.02
2019-06-08T18:21:42.918Z,19.92
2019-06-08T18:24:17.555Z,19.94
2019-06-08T18:26:53.376Z,19.83
2019-06-08T18:29:27.652Z,19.76
2019-06-08T18:32:01.289Z,19.77
2019-06-08T18:34:37.275Z,19.73
2019-06-08T18:37:10.245Z,19.58
2019-06-08T18:39:44.838Z,19.58
2019-06-08T18:42:20.265Z,19.47
2019-06-08T18:44:53.679Z,19.39
2019-06-08T18:47:27.386Z,19.36
2019-06-08T18:50:00.885Z,19.32
2019-06-08T18:52:36.019Z,19.22
2019-06-08T18:55:09.789Z,19.18
2019-06-08T18:57:44.125Z,19.11
2019-06-08T19:00:18.820Z,19.04
2019-06-08T19:02:54.468Z,18.95
2019-06-08T19:05:27.927Z,18.87
2019-06-08T19:08:01.522Z,18.80
2019-06-08T19:10:37.827Z,18.73
2019-06-08T19:13:11.498Z,18.56
2019-06-08T19:15:49.003Z,18.42
2019-06-08T19:18:20.150Z,18.45
2019-06-08T19:20:53.837Z,18.42
2019-06-08T19:23:28.012Z,18.38
2019-06-08T19:26:01.569Z,18.23
2019-06-08T19:28:36.516Z,18.07
2019-06-08T19:31:10.518Z,17.88
2019-06-08T19:33:44.010Z,17.53
2019-06-08T19:36:17.412Z,17.53
2019-06-08T19:38:54.537Z,17.34
2019-06-08T19:41:28.103Z,17.16
2019-06-08T19:44:01.164Z,16.87
2019-06-08T19:46:34.577Z,16.72
2019-06-08T19:49:08.056Z,16.58
2019-06-08T19:51:41.806Z,16.38
2019-06-08T19:54:18.331Z,16.25
2019-06-08T19:56:54.269Z,16.18
2019-06-08T19:59:27.446Z,16.02
2019-06-08T20:02:01.015Z,15.98
2019-06-08T20:04:34.447Z,15.90
2019-06-08T20:07:08.673Z,15.88
2019-06-08T20:09:43.195Z,15.66
2019-06-08T20:12:18.613Z,15.61
2019-06-08T20:14:52.219Z,15.81
2019-06-08T20:17:28.406Z,15.99
2019-06-08T20:20:00.911Z,15.88
2019-06-08T20:22:37.477Z,15.79
2019-06-08T20:25:11.167Z,15.60
2019-06-08T20:27:45.350Z,15.49
2019-06-08T20:30:19.678Z,15.28
2019-06-08T20:32:54.521Z,15.11
2019-06-08T20:35:28.198Z,14.97
2019-06-08T20:38:01.713Z,15.02
2019-06-08T20:40:35.140Z,15.15
2019-06-08T20:43:08.657Z,15.36
2019-06-08T20:45:42.135Z,15.33
2019-06-08T20:48:17.706Z,15.23
2019-06-08T20:50:52.216Z,15.24
2019-06-08T20:53:28.340Z,15.19
2019-06-08T20:56:01.240Z,15.05
2019-06-08T20:58:37.016Z,14.85
2019-06-08T21:01:09.785Z,14.85
2019-06-08T21:03:43.648Z,14.85
2019-06-08T21:06:17.247Z,14.80
2019-06-08T21:08:51.932Z,14.76
2019-06-08T21:11:27.136Z,14.69
2019-06-08T21:14:00.636Z,14.70
2019-06-08T21:16:34.069Z,14.57
2019-06-08T21:19:07.499Z,14.54
2019-06-08T21:21:40.913Z,14.43
2019-06-08T21:24:14.339Z,14.32
2019-06-08T21:26:52.269Z,14.28
2019-06-08T21:29:22.901Z,14.26
2019-06-08T21:32:00.363Z,14.19
2019-06-08T21:34:31.471Z,14.22
2019-06-08T21:37:05.039Z,14.22
2019-06-08T21:39:39.124Z,14.16
2019-06-08T21:42:12.647Z,14.07
2019-06-08T21:44:48.856Z,14.02
2019-06-08T21:47:21.272Z,13.85
2019-06-08T21:49:57.487Z,13.84
2019-06-08T21:52:30.466Z,13.93
2019-06-08T21:55:07.075Z,13.91
2019-06-08T21:57:40.158Z,13.78
2019-06-08T22:00:38.142Z,13.72
2019-06-08T22:02:49.818Z,13.69
2019-06-08T22:05:23.315Z,13.71
2019-06-08T22:07:58.788Z,13.69
2019-06-08T22:10:31.967Z,13.64
2019-06-08T22:13:08.059Z,13.65
2019-06-08T22:15:40.736Z,13.63
2019-06-08T22:18:14.211Z,13.69
2019-06-08T22:20:47.921Z,13.58
2019-06-08T22:23:21.509Z,13.37
2019-06-08T22:25:56.003Z,13.33
2019-06-08T22:28:30.147Z,13.25
2019-06-08T22:31:03.881Z,13.18
2019-06-08T22:33:37.994Z,13.12
2019-06-08T22:36:12.704Z,13.06
2019-06-08T22:38:47.734Z,13.00
2019-06-08T22:41:21.223Z,13.01
2019-06-08T22:43:55.697Z,12.98
2019-06-08T22:46:29.838Z,12.89
2019-06-08T22:49:04.030Z,12.91
2019-06-08T22:51:38.266Z,13.00
2019-06-08T22:54:12.092Z,13.06
2019-06-08T22:56:47.658Z,12.91
2019-06-08T22:59:20.690Z,12.80
2019-06-08T23:01:54.864Z,12.69
2019-06-08T23:04:29.247Z,12.62
2019-06-08T23:07:05.804Z,12.66
2019-06-08T23:09:37.818Z,12.69
2019-06-08T23:12:11.245Z,12.77
2019-06-08T23:14:47.036Z,12.81
2019-06-08T23:17:19.906Z,12.68
2019-06-08T23:19:53.404Z,12.71
2019-06-08T23:22:27.338Z,12.68
2019-06-08T23:25:01.613Z,12.57
2019-06-08T23:27:38.008Z,12.43
2019-06-08T23:30:11.321Z,12.55
2019-06-08T23:32:44.827Z,12.56
2019-06-08T23:35:18.375Z,12.56
2019-06-08T23:37:51.755Z,12.55
2019-06-08T23:40:27.222Z,12.48
2019-06-08T23:43:01.603Z,12.38
2019-06-08T23:45:37.806Z,12.28
2019-06-08T23:48:10.673Z,12.26
2019-06-08T23:50:44.053Z,12.23
2019-06-08T23:53:18.265Z,12.10
2019-06-08T23:55:51.785Z,12.09
2019-06-08T23:58:27.710Z,11.89
